To NAV CANADA Home Page Login to a new session Search on AWWS site Feedback and Comments Disclaimer Vers la page française équivalente Tips FAQ What's new on the site To the Forecasts and Observations / NOTAM section To "File a Flight Plan" website Publications and other links Update of the User's profile FIC Telephone Numbers My Weather Data Folder Route Weather Data Regional Weather Data Local Weather Data To the Forecasts and Observations / NOTAM section
Request Generated 02/09/2016 at 07:27:14 UTC . Weather information available at that time is displayed.

METAR/TAF

If you find any discrepancies between the coded METAR/TAF and the plain language METAR/TAF please use the coded METAR/TAF. LWIS bulletins are not decoded in plain language.

VANCOUVER/VANCOUVER INTL/BC    

METAR CYVR 090700Z 30009KT 20SM SKC 06/06 A3033 RMK SLP273=
METAR
LOCATION
CYVR - VANCOUVER/VANCOUVER INTL/BC
DATE - TIME
09 FEBRUARY 2016 - 0700 UTC
WIND
300 TRUE @ 9  KNOTS
VISIBILITY
20 STAT.  MILES
RUNWAY VISUAL RANGE
WEATHER
CLOUDINESS
CLEAR SKY
TEMP / DEWPOINT
6 C / 6 C
ALTIMETER
30.33 IN HG
RECENT WEATHER
WIND SHEAR

METAR CYVR 090600Z 29010KT 20SM SKC 07/06 A3035 RMK SLP279=
METAR
LOCATION
CYVR - VANCOUVER/VANCOUVER INTL/BC
DATE - TIME
09 FEBRUARY 2016 - 0600 UTC
WIND
290 TRUE @ 10  KNOTS
VISIBILITY
20 STAT.  MILES
RUNWAY VISUAL RANGE
WEATHER
CLOUDINESS
CLEAR SKY
TEMP / DEWPOINT
7 C / 6 C
ALTIMETER
30.35 IN HG
RECENT WEATHER
WIND SHEAR

METAR CYVR 090500Z 28012KT 20SM SKC 07/06 A3036 RMK SLP282=
METAR
LOCATION
CYVR - VANCOUVER/VANCOUVER INTL/BC
DATE - TIME
09 FEBRUARY 2016 - 0500 UTC
WIND
280 TRUE @ 12  KNOTS
VISIBILITY
20 STAT.  MILES
RUNWAY VISUAL RANGE
WEATHER
CLOUDINESS
CLEAR SKY
TEMP / DEWPOINT
7 C / 6 C
ALTIMETER
30.36 IN HG
RECENT WEATHER
WIND SHEAR

TAF CYVR 090538Z 0906/1012 28012KT P6SM SKC FM090900 29005KT P6SM SKC PROB30 0909/0915 1SM BR SCT005 FM091500 10008KT P6SM FEW100 BECMG 0922/0924 27005KT RMK NXT FCST BY 090900Z=
TAF
LOCATION

CYVR - VANCOUVER/VANCOUVER INTL/BC
VALIDITY [UTC]
09 FEB - 0538 to
10 FEB - 1200
 
TIMES
[UTC]
WIND
[DEGREES TRUE]
VISIBILITY
[STAT. MILES]
WEATHER
CLOUDINESS
[FEET AGL]
 
09 FEB - 0600 to
09 FEB - 0900
280 @ 12 KNOTS
6+
NIL
CLEAR SKY
 
09 FEB - 0900 to
09 FEB - 1500
290 @ 5 KNOTS
6+
NIL
CLEAR SKY
30% PROBABILITY
09 FEB - 0900 to
09 FEB - 1500
 
1
MIST
500 SCATTERED
 
09 FEB - 1500 to
10 FEB - 1200
100 @ 8 KNOTS
6+
NIL
10000 FEW
BECOMING
09 FEB - 2200 to
10 FEB - 0000
270 @ 5 KNOTS
 
 
 
REMARKS
THE NEXT FORECAST WILL BE ISSUED BY 0900 UTC ON DAY 09


Your time UTC time
Weather data provided by Environment Canada and NAV CANADA